Time;durP1;ratioP1;P1;durP2;ratioP2;P2;SDS_P1;SDS_P2;PMS_P1;PMS_P2;Temp;Humidity;BMP_temperature;BMP_pressure;BME280_temperature;BME280_humidity;BME280_pressure;Samples;Min_cycle;Max_cycle;Signal;HPM_P1;HPM_P2
2022/05/28 00:02:11;;;;;;;14.60;3.08;;;12.10;99.90;;;;;;4976562;28;20050;-82
2022/05/28 00:04:37;;;;;;;15.82;2.78;;;;;;;;;;4994295;28;20059;-80
2022/05/28 00:07:04;;;;;;;15.57;3.00;;;11.50;99.90;;;;;;4977393;28;20106;-82
2022/05/28 00:09:31;;;;;;;14.18;2.78;;;;;;;;;;4977320;28;20054;-81
2022/05/28 00:11:57;;;;;;;12.93;3.00;;;11.50;99.90;;;;;;4977786;28;20069;-81
2022/05/28 00:14:23;;;;;;;13.05;2.80;;;;;;;;;;4989904;28;20047;-82
2022/05/28 00:16:49;;;;;;;13.10;2.78;;;;;;;;;;4989145;28;20059;-82
2022/05/28 00:19:15;;;;;;;14.20;2.60;;;;;;;;;;4968331;28;20557;-82
2022/05/28 00:21:41;;;;;;;11.95;2.30;;;;;;;;;;4985414;28;20066;-83
2022/05/28 00:24:07;;;;;;;8.95;1.83;;;;;;;;;;4971922;28;20078;-84
2022/05/28 00:26:33;;;;;;;9.15;1.75;;;;;;;;;;4986890;28;20105;-84
2022/05/28 00:28:59;;;;;;;6.65;1.85;;;;;;;;;;4988690;28;20058;-84
2022/05/28 00:31:25;;;;;;;8.13;2.28;;;;;;;;;;4988140;28;20066;-84
2022/05/28 00:33:54;;;;;;;8.57;1.98;;;;;;;;;;4986611;28;20533;-84
2022/05/28 00:36:20;;;;;;;8.85;2.10;;;;;;;;;;4983826;28;20097;-84
2022/05/28 00:38:46;;;;;;;7.88;2.30;;;;;;;;;;4964856;28;20081;-84
2022/05/28 00:41:12;;;;;;;7.43;2.10;;;10.50;99.90;;;;;;4980842;28;20055;-84
2022/05/28 00:43:41;;;;;;;8.02;2.10;;;10.50;99.90;;;;;;4980233;28;20087;-83
2022/05/28 00:46:10;;;;;;;9.68;2.05;;;10.40;99.90;;;;;;4979639;28;20576;-84
2022/05/28 00:48:40;;;;;;;11.60;2.13;;;10.40;99.90;;;;;;4979817;28;20061;-84
2022/05/28 00:51:14;;;;;;;13.07;2.33;;;10.40;99.90;;;;;;4980275;28;20047;-84
2022/05/28 00:53:40;;;;;;;10.13;2.20;;;;;;;;;;4979235;28;20078;-83
2022/05/28 00:56:06;;;;;;;10.60;2.20;;;10.50;99.90;;;;;;4980649;28;20054;-84
2022/05/28 00:58:32;;;;;;;13.20;2.22;;;10.30;99.90;;;;;;4981101;28;20090;-83
2022/05/28 01:01:06;;;;;;;12.50;2.35;;;10.30;99.90;;;;;;5045968;23;20486;-60
2022/05/28 01:04:04;;;;;;;11.77;2.50;;;10.60;99.90;;;;;;4917284;29;20056;-61
2022/05/28 01:06:54;;;;;;;16.58;2.53;;;10.40;99.90;;;;;;4917053;29;20139;-60
2022/05/28 01:09:31;;;;;;;10.60;2.30;;;10.30;99.90;;;;;;4934157;29;20054;-60
2022/05/28 01:12:13;;;;;;;15.80;2.80;;;10.30;99.90;;;;;;4934509;29;20118;-60
2022/05/28 01:14:56;;;;;;;13.50;2.60;;;10.20;99.90;;;;;;4934113;29;20055;-60
2022/05/28 01:17:35;;;;;;;11.50;2.70;;;10.10;99.90;;;;;;4934441;29;20052;-60
2022/05/28 01:20:40;;;;;;;11.88;2.80;;;10.40;99.90;;;;;;4934395;29;20048;-60
2022/05/28 01:23:28;;;;;;;11.80;2.55;;;10.00;99.90;;;;;;4904404;29;20044;-60
2022/05/28 01:26:24;;;;;;;11.50;2.45;;;9.90;99.90;;;;;;4934281;29;20043;-60
2022/05/28 01:28:57;;;;;;;12.05;2.70;;;10.10;99.90;;;;;;4933943;29;20090;-60
2022/05/28 01:31:25;;;;;;;9.45;2.17;;;10.10;99.90;;;;;;4933879;29;20056;-60
2022/05/28 01:33:51;;;;;;;16.17;2.70;;;;;;;;;;4916909;29;20058;-60
2022/05/28 01:36:18;;;;;;;15.70;3.17;;;10.00;99.90;;;;;;4934169;29;20451;-60
2022/05/28 01:38:46;;;;;;;16.42;2.75;;;9.90;99.90;;;;;;4933812;29;20079;-60
2022/05/28 01:41:13;;;;;;;12.98;2.88;;;10.20;99.90;;;;;;4933773;29;20499;-61
2022/05/28 01:43:43;;;;;;;11.68;2.65;;;9.80;99.90;;;;;;4935291;29;20059;-60
2022/05/28 01:46:11;;;;;;;15.57;2.70;;;9.60;99.90;;;;;;4937022;29;20526;-60
2022/05/28 01:48:39;;;;;;;11.60;2.33;;;9.80;99.90;;;;;;4938009;29;20473;-60
2022/05/28 01:51:14;;;;;;;14.18;2.80;;;9.30;99.90;;;;;;4937946;29;20052;-60
2022/05/28 01:56:28;;;;;;;13.07;2.40;;;9.80;99.90;;;;;;4937409;29;20472;-60
2022/05/28 01:58:54;;;;;;;8.95;2.38;;;;;;;;;;4937572;29;20043;-60
2022/05/28 02:01:20;;;;;;;12.82;2.58;;;9.40;99.90;;;;;;4937593;29;20084;-60
2022/05/28 02:03:51;;;;;;;16.52;2.60;;;9.60;99.90;;;;;;4936949;29;20459;-60
2022/05/28 02:06:17;;;;;;;13.63;2.83;;;9.40;99.90;;;;;;4937186;29;20091;-60
2022/05/28 02:08:45;;;;;;;18.20;2.83;;;9.60;99.90;;;;;;4937239;29;20052;-60
2022/05/28 02:11:21;;;;;;;12.25;2.42;;;9.10;99.90;;;;;;4947914;29;20055;-60
2022/05/28 02:14:20;;;;;;;9.30;2.45;;;9.80;99.90;;;;;;4955514;29;20059;-60
2022/05/28 02:17:00;;;;;;;16.40;2.90;;;9.10;99.90;;;;;;4956363;29;20039;-61
2022/05/28 02:19:31;;;;;;;12.05;2.67;;;9.30;99.90;;;;;;4956034;29;20042;-60
2022/05/28 02:22:33;;;;;;;12.07;2.67;;;9.10;99.90;;;;;;4938956;29;20145;-60
2022/05/28 02:25:06;;;;;;;17.92;2.90;;;9.60;99.90;;;;;;4890908;29;20558;-60
2022/05/28 02:27:34;;;;;;;11.45;2.88;;;9.50;99.90;;;;;;4956269;29;20055;-60
2022/05/28 02:30:00;;;;;;;12.27;2.50;;;9.20;99.90;;;;;;4955820;29;20414;-60
2022/05/28 02:32:26;;;;;;;17.52;3.10;;;9.10;99.90;;;;;;4956228;29;20450;-60
2022/05/28 02:34:55;;;;;;;15.88;3.03;;;;;;;;;;4956087;29;20051;-60
2022/05/28 02:37:25;;;;;;;16.13;3.25;;;9.30;99.90;;;;;;4956087;29;20051;-60
2022/05/28 02:39:51;;;;;;;15.98;2.70;;;9.50;99.90;;;;;;4955765;29;20129;-60
2022/05/28 02:42:16;;;;;;;13.52;2.60;;;9.40;99.90;;;;;;4955909;29;20079;-60
2022/05/28 02:44:42;;;;;;;15.25;2.80;;;9.40;99.90;;;;;;4955898;29;20093;-59
2022/05/28 02:47:08;;;;;;;11.57;2.75;;;9.10;99.90;;;;;;4955971;29;20047;-60
2022/05/28 02:49:34;;;;;;;13.05;2.80;;;9.50;99.90;;;;;;4955690;29;20054;-59
2022/05/28 02:52:02;;;;;;;14.77;2.83;;;9.10;99.90;;;;;;4955596;29;20085;-59
2022/05/28 02:54:29;;;;;;;14.75;2.75;;;9.20;99.90;;;;;;4955523;28;20106;-60
2022/05/28 02:56:57;;;;;;;11.77;2.53;;;;;;;;;;4955434;29;20051;-60
2022/05/28 02:59:25;;;;;;;11.65;2.50;;;9.10;99.90;;;;;;4938459;29;20047;-60
2022/05/28 03:01:51;;;;;;;13.10;2.65;;;9.00;99.90;;;;;;4955387;29;20051;-60
2022/05/28 03:04:18;;;;;;;11.55;2.55;;;9.00;99.90;;;;;;4955388;29;20270;-60
2022/05/28 03:06:44;;;;;;;12.15;2.60;;;9.00;99.90;;;;;;4955013;29;20465;-59
2022/05/28 03:09:13;;;;;;;17.83;2.70;;;9.20;99.90;;;;;;4955498;29;20082;-60
2022/05/28 03:11:41;;;;;;;12.50;2.95;;;9.00;99.90;;;;;;4954982;29;20051;-60
2022/05/28 03:14:06;;;;;;;17.10;2.97;;;9.50;99.90;;;;;;4955209;29;20502;-60
2022/05/28 03:16:32;;;;;;;14.32;2.78;;;8.90;99.90;;;;;;4955341;29;20054;-60
2022/05/28 03:18:59;;;;;;;15.23;2.53;;;9.10;99.90;;;;;;4955339;29;20094;-59
2022/05/28 03:21:25;;;;;;;11.80;2.90;;;8.80;99.90;;;;;;4955121;29;20047;-60
2022/05/28 03:23:50;;;;;;;16.60;2.78;;;9.20;99.90;;;;;;4954685;29;20075;-59
2022/05/28 03:26:16;;;;;;;13.60;2.80;;;8.80;99.90;;;;;;4954746;29;20047;-60
2022/05/28 03:28:49;;;;;;;16.77;2.72;;;8.80;99.90;;;;;;4955142;29;20074;-61
2022/05/28 03:31:15;;;;;;;15.52;2.70;;;9.30;99.90;;;;;;4922758;29;20091;-60
2022/05/28 03:33:42;;;;;;;15.43;2.78;;;8.60;99.90;;;;;;4954856;29;20113;-59
2022/05/28 03:36:08;;;;;;;13.93;2.80;;;9.00;99.90;;;;;;4954477;28;20090;-59
2022/05/28 03:38:35;;;;;;;13.90;2.88;;;9.20;99.90;;;;;;4954442;29;20059;-60
2022/05/28 03:41:00;;;;;;;17.02;3.58;;;9.10;99.90;;;;;;4954843;29;20043;-60
2022/05/28 03:43:27;;;;;;;17.60;3.13;;;8.40;99.90;;;;;;4954585;29;20142;-60
2022/05/28 03:45:53;;;;;;;13.65;2.78;;;9.00;99.90;;;;;;4954563;29;20043;-60
2022/05/28 03:48:20;;;;;;;12.57;2.60;;;9.00;99.90;;;;;;4954619;29;20082;-59
2022/05/28 03:50:45;;;;;;;12.25;2.70;;;9.20;99.90;;;;;;4955082;29;20061;-59
2022/05/28 03:53:11;;;;;;;25.80;3.50;;;;;;;;;;4937127;29;20047;-60
2022/05/28 03:55:39;;;;;;;14.10;2.95;;;9.20;99.90;;;;;;4954629;29;20411;-59
2022/05/28 03:58:05;;;;;;;14.93;3.22;;;8.90;99.90;;;;;;4954417;29;20055;-59
2022/05/28 04:00:31;;;;;;;13.77;2.70;;;8.90;99.90;;;;;;4937208;29;20503;-59
2022/05/28 04:02:58;;;;;;;16.75;3.00;;;9.30;99.90;;;;;;4954651;29;20055;-59
2022/05/28 04:05:27;;;;;;;13.98;2.65;;;5.60;99.90;;;;;;4953966;28;20070;-59
2022/05/28 04:07:53;;;;;;;13.77;2.90;;;9.30;99.90;;;;;;4953541;29;20495;-60
2022/05/28 04:10:19;;;;;;;13.77;2.60;;;9.00;99.90;;;;;;4953981;29;20047;-59
2022/05/28 04:12:45;;;;;;;15.00;2.95;;;9.60;99.90;;;;;;4954250;29;20094;-59
2022/05/28 04:15:11;;;;;;;17.70;2.80;;;9.30;99.90;;;;;;4954040;29;20400;-59
2022/05/28 04:17:40;;;;;;;13.57;2.83;;;9.60;99.90;;;;;;4953992;28;20148;-60
2022/05/28 04:20:08;;;;;;;18.30;2.83;;;9.50;99.90;;;;;;4936678;29;20055;-59
2022/05/28 04:22:34;;;;;;;11.77;2.63;;;9.10;99.90;;;;;;4937231;29;20127;-59
2022/05/28 04:24:59;;;;;;;11.45;3.13;;;8.90;99.90;;;;;;4953908;29;20122;-59
2022/05/28 04:27:25;;;;;;;14.15;2.85;;;9.50;99.90;;;;;;4953693;29;20513;-59
2022/05/28 04:29:53;;;;;;;15.80;2.92;;;9.50;99.90;;;;;;4953642;29;20098;-59
2022/05/28 04:32:18;;;;;;;17.23;3.17;;;9.40;99.90;;;;;;4954235;29;20059;-59
2022/05/28 04:34:44;;;;;;;14.75;3.05;;;9.20;99.90;;;;;;4953857;29;20228;-59
2022/05/28 04:37:10;;;;;;;14.07;2.95;;;9.50;99.90;;;;;;4953413;29;20051;-59
2022/05/28 04:39:36;;;;;;;15.40;2.80;;;10.10;99.90;;;;;;4953705;29;20103;-59
2022/05/28 04:42:02;;;;;;;16.20;2.80;;;10.20;99.90;;;;;;4936463;29;20047;-59
2022/05/28 04:44:27;;;;;;;17.15;3.17;;;10.50;99.90;;;;;;4936257;29;20051;-60
2022/05/28 04:46:53;;;;;;;14.77;3.28;;;;;;;;;;4953775;29;20078;-60
2022/05/28 04:49:19;;;;;;;16.95;3.03;;;13.30;99.90;;;;;;4953324;29;20522;-60
2022/05/28 04:51:44;;;;;;;11.05;2.72;;;14.00;99.90;;;;;;4936626;29;20090;-60
2022/05/28 04:54:10;;;;;;;12.68;2.60;;;14.80;99.90;;;;;;4953611;29;20055;-60
2022/05/28 04:56:36;;;;;;;14.13;2.70;;;15.40;99.90;;;;;;4953507;29;20474;-60
2022/05/28 04:59:02;;;;;;;13.35;2.65;;;15.50;99.90;;;;;;4953293;29;20061;-61
2022/05/28 05:01:28;;;;;;;9.40;2.60;;;17.00;99.90;;;;;;4936265;29;20066;-61
2022/05/28 05:03:54;;;;;;;11.68;2.45;;;17.10;99.90;;;;;;4953188;29;20498;-61
2022/05/28 05:06:20;;;;;;;13.00;3.38;;;17.10;99.90;;;;;;4936036;29;20047;-61
2022/05/28 05:08:46;;;;;;;8.20;2.50;;;16.90;99.90;;;;;;4953358;29;20058;-61
2022/05/28 05:11:16;;;;;;;14.73;2.90;;;17.20;99.90;;;;;;4953777;29;20051;-60
2022/05/28 05:13:42;;;;;;;12.27;3.00;;;16.80;99.90;;;;;;4935951;29;20098;-60
2022/05/28 05:16:10;;;;;;;12.50;3.30;;;16.10;99.90;;;;;;4953135;29;20055;-60
2022/05/28 05:18:36;;;;;;;13.60;2.90;;;15.50;99.90;;;;;;4952668;29;20094;-60
2022/05/28 05:21:02;;;;;;;17.15;3.40;;;15.40;99.90;;;;;;4935897;29;20051;-61
2022/05/28 05:23:28;;;;;;;12.82;2.60;;;15.80;99.90;;;;;;4936329;29;20085;-61
2022/05/28 05:25:54;;;;;;;15.13;2.90;;;16.70;99.90;;;;;;4953037;29;20071;-60
2022/05/28 05:28:25;;;;;;;10.70;3.08;;;17.50;99.90;;;;;;4953069;29;20483;-61
2022/05/28 05:30:50;;;;;;;12.25;3.28;;;17.20;99.90;;;;;;4952982;29;20051;-61
2022/05/28 05:33:16;;;;;;;12.32;2.88;;;17.60;99.90;;;;;;4953160;29;20114;-60
2022/05/28 05:35:41;;;;;;;16.38;3.08;;;16.80;99.90;;;;;;4953088;29;20487;-60
2022/05/28 05:38:08;;;;;;;16.17;3.20;;;15.40;99.90;;;;;;4952762;29;20069;-60
2022/05/28 05:40:39;;;;;;;12.10;2.83;;;15.00;99.90;;;;;;4952930;29;20539;-60
2022/05/28 05:43:06;;;;;;;16.15;3.25;;;14.50;99.90;;;;;;4953248;29;20058;-60
2022/05/28 05:45:32;;;;;;;12.13;2.90;;;13.70;99.90;;;;;;4953199;29;20103;-60
2022/05/28 05:47:57;;;;;;;11.80;3.17;;;14.10;99.90;;;;;;4952671;29;20134;-61
2022/05/28 05:50:23;;;;;;;15.40;3.05;;;13.00;99.90;;;;;;4953076;29;20130;-60
2022/05/28 05:52:49;;;;;;;16.15;3.03;;;14.00;99.90;;;;;;4953294;29;20442;-60
2022/05/28 05:55:15;;;;;;;15.30;3.03;;;13.30;99.90;;;;;;4952651;29;20043;-60
2022/05/28 05:57:41;;;;;;;18.40;3.13;;;13.30;99.90;;;;;;4952707;29;20039;-60
2022/05/28 06:00:08;;;;;;;18.58;3.58;;;13.90;99.90;;;;;;4952601;29;20051;-61
2022/05/28 06:02:34;;;;;;;14.45;3.28;;;;;;;;;;4952652;29;20376;-61
2022/05/28 06:04:59;;;;;;;17.92;3.05;;;15.10;99.90;;;;;;4952983;29;20471;-61
2022/05/28 06:07:26;;;;;;;20.45;4.07;;;15.30;99.90;;;;;;4935649;29;20086;-60
2022/05/28 06:09:53;;;;;;;11.88;3.08;;;15.90;99.90;;;;;;4952650;29;20051;-61
2022/05/28 06:12:18;;;;;;;14.95;3.10;;;16.70;99.90;;;;;;4952698;29;20151;-61
2022/05/28 06:14:46;;;;;;;18.15;3.42;;;;;;;;;;4935686;29;20176;-61
2022/05/28 06:17:12;;;;;;;13.73;3.17;;;17.60;99.90;;;;;;4952774;29;20499;-61
2022/05/28 06:19:38;;;;;;;13.93;2.97;;;18.90;99.90;;;;;;4952843;29;20134;-61
2022/05/28 06:22:04;;;;;;;12.63;3.25;;;19.20;95.10;;;;;;4952562;29;20055;-61
2022/05/28 06:24:33;;;;;;;11.23;2.90;;;19.20;94.60;;;;;;4952791;29;20058;-61
2022/05/28 06:27:00;;;;;;;15.15;3.05;;;19.20;88.60;;;;;;4952626;29;20047;-62
2022/05/28 06:29:27;;;;;;;13.93;2.90;;;18.50;98.60;;;;;;4953149;28;20059;-61
2022/05/28 06:31:52;;;;;;;14.00;3.00;;;18.10;98.20;;;;;;4956332;29;20051;-61
2022/05/28 06:34:18;;;;;;;11.82;3.00;;;18.00;98.80;;;;;;4956102;29;20561;-64
2022/05/28 06:36:45;;;;;;;11.13;2.90;;;18.60;99.90;;;;;;4955940;29;20055;-61
2022/05/28 06:39:13;;;;;;;14.60;3.28;;;18.20;95.50;;;;;;4955741;29;20120;-61
2022/05/28 06:41:39;;;;;;;12.23;2.97;;;;;;;;;;4954659;29;20061;-61
2022/05/28 06:44:05;;;;;;;14.38;2.95;;;18.30;99.90;;;;;;4955949;29;20078;-61
2022/05/28 06:46:32;;;;;;;11.65;3.00;;;18.20;98.40;;;;;;4923076;29;20471;-61
2022/05/28 06:48:58;;;;;;;12.90;3.10;;;18.70;96.10;;;;;;4955844;29;20051;-62
2022/05/28 06:51:24;;;;;;;9.23;2.38;;;18.90;90.90;;;;;;4955925;29;20401;-61
2022/05/28 06:53:50;;;;;;;12.15;2.80;;;19.10;91.90;;;;;;4955746;29;20050;-62
2022/05/28 06:56:18;;;;;;;10.95;2.53;;;19.20;83.60;;;;;;4922494;29;20463;-61
2022/05/28 06:58:43;;;;;;;13.07;2.92;;;20.00;86.80;;;;;;4955879;29;20051;-59
2022/05/28 07:01:10;;;;;;;13.25;2.80;;;20.00;75.80;;;;;;4955315;29;20055;-60
2022/05/28 07:03:37;;;;;;;12.43;2.83;;;19.90;91.60;;;;;;4955609;29;20051;-59
2022/05/28 07:06:03;;;;;;;10.68;2.40;;;19.60;89.30;;;;;;4955543;29;20047;-59
2022/05/28 07:08:30;;;;;;;10.80;2.80;;;19.70;78.00;;;;;;4955240;29;20518;-59
2022/05/28 07:10:58;;;;;;;12.85;2.83;;;19.40;90.80;;;;;;4952640;29;20578;-60
2022/05/28 07:13:25;;;;;;;14.80;2.97;;;18.90;81.50;;;;;;4930854;29;20067;-60
2022/05/28 07:15:51;;;;;;;12.30;3.00;;;18.00;92.00;;;;;;4947385;29;20491;-60
2022/05/28 07:18:17;;;;;;;11.10;2.83;;;17.20;97.50;;;;;;4935054;29;20063;-60
2022/05/28 07:20:44;;;;;;;10.88;2.88;;;16.20;99.90;;;;;;4947255;29;20032;-60
2022/05/28 07:23:19;;;;;;;11.35;2.83;;;15.80;99.90;;;;;;4946666;28;20055;-59
2022/05/28 07:25:46;;;;;;;16.08;3.17;;;15.30;99.90;;;;;;4943981;29;20648;-59
2022/05/28 07:28:24;;;;;;;12.80;2.90;;;15.60;99.90;;;;;;4954198;28;20126;-60
2022/05/28 07:31:06;;;;;;;12.13;2.83;;;15.20;99.90;;;;;;4954770;29;20047;-59
2022/05/28 07:33:34;;;;;;;12.90;2.70;;;14.80;99.90;;;;;;4954020;28;20160;-60
2022/05/28 07:36:01;;;;;;;12.02;2.90;;;14.60;99.90;;;;;;4954255;28;20054;-59
2022/05/28 07:38:28;;;;;;;13.27;2.85;;;14.30;99.90;;;;;;4953974;28;20058;-59
2022/05/28 07:40:54;;;;;;;15.18;2.90;;;14.90;99.90;;;;;;4953227;28;20036;-59
2022/05/28 07:43:21;;;;;;;12.48;3.03;;;14.80;99.90;;;;;;4953953;29;20050;-59
2022/05/28 07:45:47;;;;;;;11.50;3.22;;;14.90;99.90;;;;;;4953856;28;20058;-59
2022/05/28 07:48:15;;;;;;;11.30;2.65;;;15.20;99.90;;;;;;4953984;29;20043;-60
2022/05/28 07:50:41;;;;;;;13.45;3.13;;;15.20;99.90;;;;;;4953930;28;20083;-60
2022/05/28 07:53:09;;;;;;;10.10;2.50;;;14.90;99.90;;;;;;4954270;29;20098;-59
2022/05/28 07:55:35;;;;;;;10.35;2.33;;;14.90;99.90;;;;;;4952896;28;20058;-59
2022/05/28 07:58:15;;;;;;;8.15;2.22;;;14.70;99.90;;;;;;4953993;29;20051;-59
2022/05/28 08:00:45;;;;;;;8.30;2.33;;;14.60;99.90;;;;;;4953829;29;20048;-59
2022/05/28 08:03:14;;;;;;;8.63;2.08;;;14.40;99.90;;;;;;4934275;29;20419;-59
2022/05/28 08:05:42;;;;;;;7.57;2.30;;;12.10;99.90;;;;;;4917502;29;20083;-59
2022/05/28 08:08:08;;;;;;;8.80;2.10;;;14.20;99.90;;;;;;4934153;29;20102;-60
2022/05/28 08:10:35;;;;;;;6.93;2.28;;;14.40;99.90;;;;;;4934600;29;20060;-59
2022/05/28 08:13:04;;;;;;;8.90;2.30;;;14.30;99.90;;;;;;4934504;29;20094;-60
2022/05/28 08:15:30;;;;;;;11.82;2.40;;;14.50;99.90;;;;;;4917194;29;20459;-60
2022/05/28 08:17:57;;;;;;;10.48;2.38;;;14.30;99.90;;;;;;4932964;29;20083;-60
2022/05/28 08:23:08;;;;;;;8.27;2.47;;;14.30;99.90;;;;;;4933441;29;20056;-60
2022/05/28 08:23:08;;;;;;;9.23;2.25;;;14.30;99.90;;;;;;4934181;29;20423;-59
2022/05/28 08:25:34;;;;;;;12.50;2.60;;;14.50;99.90;;;;;;4927247;29;20059;-61
2022/05/28 08:28:00;;;;;;;12.25;2.67;;;15.00;99.90;;;;;;4933725;29;20047;-59
2022/05/28 08:30:26;;;;;;;17.10;3.58;;;14.80;99.90;;;;;;4933287;29;20567;-59
2022/05/28 08:32:52;;;;;;;16.73;3.28;;;14.90;99.90;;;;;;4933948;29;20048;-59
2022/05/28 08:35:18;;;;;;;13.43;3.53;;;14.80;99.90;;;;;;4916218;29;20062;-59
2022/05/28 08:37:43;;;;;;;11.80;3.20;;;15.00;99.90;;;;;;4916462;29;20411;-59
2022/05/28 08:40:11;;;;;;;17.42;3.70;;;15.10;99.90;;;;;;4933639;29;20530;-59
2022/05/28 08:42:38;;;;;;;15.50;3.35;;;15.70;99.90;;;;;;4916921;29;20116;-59
2022/05/28 08:45:05;;;;;;;15.82;4.00;;;15.90;99.90;;;;;;4933318;29;20122;-59
2022/05/28 08:47:36;;;;;;;15.48;3.53;;;15.90;99.90;;;;;;4933216;29;20043;-59
2022/05/28 08:50:06;;;;;;;15.30;3.00;;;15.60;99.90;;;;;;4932994;29;20467;-59
2022/05/28 08:52:53;;;;;;;15.55;3.67;;;16.50;99.90;;;;;;4907162;29;20146;-59
2022/05/28 08:55:23;;;;;;;16.20;3.55;;;16.60;99.90;;;;;;4913054;29;20052;-60
2022/05/28 08:58:00;;;;;;;15.70;3.30;;;16.50;99.90;;;;;;4912335;29;20055;-59
2022/05/28 09:00:44;;;;;;;14.98;3.20;;;16.50;99.90;;;;;;4912025;29;20055;-59
2022/05/28 09:03:18;;;;;;;12.70;3.20;;;16.40;99.90;;;;;;4911539;29;20044;-59
2022/05/28 09:06:04;;;;;;;15.63;3.60;;;16.40;99.90;;;;;;4925461;29;20103;-59
2022/05/28 09:08:38;;;;;;;17.30;3.30;;;16.40;99.90;;;;;;4930831;29;20547;-59
2022/05/28 09:11:18;;;;;;;13.43;3.50;;;16.30;99.90;;;;;;4931356;29;20055;-60
2022/05/28 09:13:48;;;;;;;20.52;3.70;;;16.50;99.90;;;;;;4931176;29;20048;-59
2022/05/28 09:16:32;;;;;;;15.02;3.40;;;16.40;99.90;;;;;;4945812;29;20134;-60
2022/05/28 09:19:15;;;;;;;14.88;3.60;;;16.00;99.90;;;;;;4911592;29;20056;-60
2022/05/28 09:21:43;;;;;;;18.65;3.90;;;15.70;99.90;;;;;;4930687;29;20056;-60
2022/05/28 09:24:24;;;;;;;22.02;4.15;;;15.30;99.90;;;;;;4930969;29;20524;-59
2022/05/28 09:26:55;;;;;;;17.10;3.72;;;15.30;99.90;;;;;;4914196;29;20043;-59
2022/05/28 09:29:47;;;;;;;20.15;3.90;;;14.70;99.90;;;;;;4938350;29;20052;-59
2022/05/28 09:32:22;;;;;;;16.63;3.60;;;14.30;99.90;;;;;;4929490;29;20103;-59
2022/05/28 09:34:54;;;;;;;19.80;3.88;;;14.10;99.90;;;;;;4912046;29;20059;-59
2022/05/28 09:37:45;;;;;;;19.58;3.70;;;14.30;99.90;;;;;;4911886;29;20052;-59
2022/05/28 09:40:38;;;;;;;18.58;3.80;;;14.10;99.90;;;;;;4911544;29;20425;-59
2022/05/28 09:43:22;;;;;;;16.80;3.80;;;14.30;99.90;;;;;;4911813;29;20087;-59
2022/05/28 09:46:12;;;;;;;23.15;4.40;;;15.00;99.90;;;;;;4912526;29;20316;-59
2022/05/28 09:48:37;;;;;;;17.17;3.72;;;15.00;99.90;;;;;;4853176;29;20050;-59
2022/05/28 09:51:05;;;;;;;20.75;3.92;;;15.20;99.90;;;;;;4837671;29;20422;-59
2022/05/28 09:56:26;;;;;;;17.65;3.55;;;15.60;99.90;;;;;;4852858;29;20513;-59
2022/05/28 09:58:53;;;;;;;18.50;3.70;;;15.80;99.90;;;;;;4868882;29;20131;-60
2022/05/28 10:01:22;;;;;;;21.40;4.20;;;15.40;99.90;;;;;;4845320;29;20052;-59
2022/05/28 10:06:49;;;;;;;15.32;3.78;;;15.30;99.90;;;;;;4894920;29;20092;-59
2022/05/28 10:09:21;;;;;;;13.15;3.25;;;15.30;99.90;;;;;;4895226;29;20048;-60
2022/05/28 10:11:56;;;;;;;15.45;3.30;;;15.00;99.90;;;;;;4896348;29;20585;-59
2022/05/28 10:14:28;;;;;;;13.13;3.13;;;15.40;99.90;;;;;;4895772;29;20052;-60
2022/05/28 10:16:59;;;;;;;11.75;2.88;;;15.50;99.90;;;;;;4896185;29;20372;-60
2022/05/28 10:19:41;;;;;;;15.95;3.40;;;15.50;99.90;;;;;;4895645;29;20057;-60
2022/05/28 10:22:19;;;;;;;16.58;3.35;;;15.40;99.90;;;;;;4896086;29;20056;-59
2022/05/28 10:25:16;;;;;;;12.50;3.03;;;15.20;99.90;;;;;;4901557;29;20045;-60
2022/05/28 10:27:49;;;;;;;16.35;3.15;;;15.10;99.90;;;;;;4877116;29;20115;-60
2022/05/28 10:30:33;;;;;;;15.80;3.20;;;15.00;99.90;;;;;;4876881;29;20123;-60
2022/05/28 10:33:05;;;;;;;17.95;3.00;;;14.80;99.90;;;;;;4877347;29;20049;-60
2022/05/28 10:35:31;;;;;;;52.40;5.10;;;14.70;99.90;;;;;;4876897;29;20081;-60
2022/05/28 10:38:11;;;;;;;17.15;3.42;;;14.80;99.90;;;;;;4877445;29;20049;-59
2022/05/28 10:40:52;;;;;;;18.20;3.33;;;14.70;99.90;;;;;;4876602;29;20139;-60
2022/05/28 10:43:26;;;;;;;13.55;2.92;;;14.90;99.90;;;;;;4876855;29;20402;-60
2022/05/28 10:46:04;;;;;;;139.02;9.90;;;14.90;99.90;;;;;;4876661;29;20055;-60
2022/05/28 10:48:43;;;;;;;13.52;3.35;;;15.10;99.90;;;;;;4876747;29;20045;-60
2022/05/28 10:51:19;;;;;;;16.08;3.25;;;15.20;99.90;;;;;;4867233;29;20089;-59
2022/05/28 10:54:12;;;;;;;19.13;3.28;;;15.40;99.90;;;;;;4876989;29;20049;-60
2022/05/28 10:57:13;;;;;;;15.43;3.35;;;15.60;99.90;;;;;;4892018;29;20053;-59
2022/05/28 10:59:50;;;;;;;16.02;3.20;;;15.70;99.90;;;;;;4839972;29;20137;-59
2022/05/28 11:02:47;;;;;;;15.50;3.25;;;16.00;99.90;;;;;;4840214;29;20094;-59
2022/05/28 11:05:31;;;;;;;14.38;3.28;;;16.60;99.90;;;;;;4842560;29;20166;-60
2022/05/28 11:08:18;;;;;;;13.45;3.40;;;15.70;99.90;;;;;;4858209;29;20053;-60
2022/05/28 11:10:52;;;;;;;18.45;3.97;;;15.30;99.90;;;;;;4858547;29;20084;-59
2022/05/28 11:13:32;;;;;;;13.77;3.28;;;15.00;99.90;;;;;;4858858;29;20052;-60
2022/05/28 11:16:26;;;;;;;16.67;3.35;;;14.10;99.90;;;;;;4858468;29;20054;-60
2022/05/28 11:19:13;;;;;;;15.77;3.30;;;15.00;99.90;;;;;;4858385;29;20537;-60
2022/05/28 11:21:48;;;;;;;16.63;3.10;;;15.40;99.90;;;;;;4872628;29;20476;-60
2022/05/28 11:24:35;;;;;;;12.70;3.00;;;14.90;99.90;;;;;;4876738;29;20048;-60
2022/05/28 11:27:13;;;;;;;13.05;2.90;;;14.90;99.90;;;;;;4876890;29;20409;-60
2022/05/28 11:29:58;;;;;;;12.27;2.88;;;15.10;99.90;;;;;;4861389;29;20116;-60
2022/05/28 11:32:27;;;;;;;12.63;2.70;;;15.80;99.90;;;;;;4876403;29;20061;-60
2022/05/28 11:35:15;;;;;;;13.23;3.13;;;15.80;99.90;;;;;;4875531;29;20372;-60
2022/05/28 11:37:57;;;;;;;14.05;3.00;;;16.00;99.90;;;;;;4946445;29;20047;-60
2022/05/28 11:40:37;;;;;;;15.52;3.10;;;16.10;99.90;;;;;;4954724;29;20051;-60
2022/05/28 11:43:16;;;;;;;13.45;3.10;;;15.70;99.90;;;;;;4954648;29;20051;-60
2022/05/28 11:45:48;;;;;;;14.00;3.17;;;16.30;99.90;;;;;;4954723;29;20110;-60
2022/05/28 11:48:23;;;;;;;11.50;2.78;;;16.20;99.90;;;;;;4954847;29;20511;-60
2022/05/28 11:51:27;;;;;;;12.27;3.05;;;16.20;99.90;;;;;;4954780;29;20163;-59
2022/05/28 11:54:11;;;;;;;15.52;3.30;;;15.10;99.90;;;;;;4954682;29;20678;-60
2022/05/28 11:56:36;;;;;;;14.30;3.40;;;15.60;99.90;;;;;;4954445;29;20499;-60
2022/05/28 11:59:15;;;;;;;13.40;3.40;;;15.30;99.90;;;;;;4954481;28;20056;-60
2022/05/28 12:01:55;;;;;;;11.57;2.97;;;15.30;99.90;;;;;;4954303;28;20118;-60
2022/05/28 12:04:21;;;;;;;13.02;3.10;;;15.30;99.90;;;;;;4954647;29;20062;-60
2022/05/28 12:07:19;;;;;;;13.48;3.40;;;15.40;99.90;;;;;;4954212;28;20051;-60
2022/05/28 12:09:46;;;;;;;46.47;3.85;;;15.90;99.90;;;;;;4942312;29;20051;-60
2022/05/28 12:12:19;;;;;;;19.50;3.05;;;16.50;99.90;;;;;;4936981;29;20129;-59
2022/05/28 12:14:48;;;;;;;28.42;3.28;;;16.90;99.90;;;;;;4953940;29;20051;-59
2022/05/28 12:17:21;;;;;;;9.25;2.60;;;17.30;99.90;;;;;;4954629;28;20118;-60
2022/05/28 12:19:53;;;;;;;11.90;2.60;;;17.70;98.30;;;;;;4954176;28;20051;-59
2022/05/28 12:22:29;;;;;;;9.85;3.17;;;17.70;94.10;;;;;;4953966;29;20051;-60
2022/05/28 12:25:06;;;;;;;11.80;3.05;;;17.90;94.90;;;;;;4936730;29;20055;-60
2022/05/28 12:27:39;;;;;;;12.57;2.75;;;18.10;92.40;;;;;;4953384;28;20047;-60
2022/05/28 12:30:08;;;;;;;14.25;2.97;;;18.40;94.30;;;;;;4921180;29;20054;-60
2022/05/28 12:32:43;;;;;;;11.88;2.80;;;18.50;93.60;;;;;;4953816;28;20047;-60
2022/05/28 12:35:08;;;;;;;10.23;2.70;;;18.50;89.60;;;;;;4953794;28;20528;-60
2022/05/28 12:37:37;;;;;;;8.68;2.53;;;18.10;90.20;;;;;;4953795;28;20130;-60
2022/05/28 12:40:06;;;;;;;65.30;5.43;;;17.80;92.00;;;;;;4954055;28;20103;-60
2022/05/28 12:42:32;;;;;;;10.80;2.90;;;16.90;98.90;;;;;;4936562;29;20128;-60
2022/05/28 12:45:12;;;;;;;12.57;2.60;;;17.10;95.80;;;;;;4953848;29;20147;-60
2022/05/28 12:47:41;;;;;;;13.35;3.17;;;16.80;93.90;;;;;;4937217;29;20079;-60
2022/05/28 12:50:32;;;;;;;12.30;3.00;;;16.80;97.80;;;;;;4954078;29;20126;-60
2022/05/28 12:53:04;;;;;;;16.33;3.60;;;17.00;93.60;;;;;;4936420;29;20050;-60
2022/05/28 12:55:36;;;;;;;14.82;3.25;;;17.00;95.30;;;;;;4953884;29;20058;-60
2022/05/28 12:58:04;;;;;;;18.67;3.05;;;16.80;94.40;;;;;;4953429;29;20525;-60
2022/05/28 13:00:47;;;;;;;18.48;3.03;;;16.60;94.10;;;;;;4953369;28;20047;-60
2022/05/28 13:03:16;;;;;;;11.98;3.00;;;16.10;99.90;;;;;;4933540;29;20122;-60
2022/05/28 13:05:50;;;;;;;9.77;2.78;;;16.20;98.70;;;;;;4934493;29;20374;-60
2022/05/28 13:08:26;;;;;;;11.82;2.78;;;16.30;98.40;;;;;;4933507;29;20515;-60
2022/05/28 13:11:00;;;;;;;;;;;16.30;99.70;;;;;;4933475;29;20039;-59
2022/05/28 13:14:06;;;;;;;13.48;3.13;;;16.10;99.30;;;;;;4933716;29;20014;-60
2022/05/28 13:16:59;;;;;;;10.48;2.80;;;16.10;99.90;;;;;;4856620;29;20117;-60
2022/05/28 13:19:34;;;;;;;9.98;2.80;;;15.90;98.50;;;;;;4856572;29;20090;-60